Kasserine, Tunisia

4:56 PM CET on August 30, 2014 (GMT +0100)
Cheikh Larbi Tebessi | Change Station
CLOSE
Current Station
Airport
Location: Tebessa,
Elevation: 2661 ft
Nearby Weather Stations

Elev 2661 ft 35.43 °N, 8.12 °E | Updated 26 minutes ago

Scattered Clouds
Scattered Clouds
95 °F
Feels Like 95 °F
N
0
Wind Variable Wind from North

Today
High -- | Low -- °F
--% Chance of Precip.
Yesterday
High -- | Low -- °F
Precip. -- in
5:57 AM 6:56 PM
Waxing Crescent, 22% visible
Pressure 30.06 in
Visibility 6.2 miles
Clouds Scattered Clouds 4000 ft
Scattered Clouds 10000 ft
Dew Point 52 °F
Humidity 23%
Rainfall 0.00 in
Snow Depth Not available.
UV 3 out of 12
Pollen Not available.
Air Quality Not available.
Flu Activity Not available.
METAR DABS 301530Z 00000KT 9999 SCT040 SCT100 35/11 Q1018

More Conditions Fewer Conditions

Pressure 30.06 in
Visibility 6.2 miles
Clouds Scattered Clouds 4000 ft
Scattered Clouds 10000 ft
Dew Point 52 °F
Humidity 23%
Rainfall 0.00 in
Snow Depth Not available.
UV 3 out of 12
Pollen Not available.
Air Quality Not available.
Flu Activity Not available.
METAR DABS 301530Z 00000KT 9999 SCT040 SCT100 35/11 Q1018

More Conditions Fewer Conditions

10-Day Weather Forecast

Almanac

Astronomy

Aug. 30, 2014 Rise Set
Actual Time 5:57 AM CET 6:56 PM CET
Civil Twilight 5:31 AM CET 7:22 PM CET
Nautical Twilight 5:00 AM CET 7:52 PM CET
Astronomical Twilight 4:28 AM CET 8:24 PM CET
Moon 10:17 AM CET 9:32 PM CET
Length of Visible Light 13h 50m
Length of Day
12h 58m
Tomorrow will be 2m 6s shorter.
Waxing Crescent, 22% of the Moon is Illuminated
Today
Waxing Crescent
Sep 2
First Quarter
Sep 8
Full
Sep 15
Last Quarter
Sep 24
New

Today's Extremes

Country Highs Country Lows

Community

WunderPhotos

Upload Photos

1,748,550 photos uploaded!

WunderBlogs® & News

Nearby

Snow Depth

Not available.

Earthquake Activity

City Distance Mag. Time & Date
No recent earthquake activity has been reported nearby.
Minimum magnitude displayed is 2.5.

Coastal Water Temperatures

Place Temperature
No Stations Reporting

Nearby Weather Stations